Latest Weather Observations for Hobart Airport

IDT60801

Issued at 6:32 am EST Thursday 27 July 2017 (issued every 30 minutes, with the page automatically refreshed every 10 minutes)

About weather observations | Map of weather stations | Latest weather observations for TAS | Other Formats
Station Details ID: 094008 Name: HOBART AIRPORT Lat: -42.83 Lon: 147.50 Height: 4.0 m
Data from the previous 72 hours. | See also: Recent months at Hobart Airport
Date/Time
EST
Temp
°C
App
Temp
°C
Dew
Point
°C
Rel
Hum
%
Delta-T
°C
Wind Press
QNH
hPa
Press
MSL
hPa
Rain since
9am
mm
Dir  Spd
km/h
Gust
km/h
Spd
kts
Gust
kts
27/06:00am 2.1 -2.4 -0.4 83 0.9 NNW 13 19 7 10 1018.5 1018.6 0.0
27/05:30am 3.0 -1.8 0.0 81 1.1 NW 15 20 8 11 1018.8 1018.9 0.0
27/05:00am 3.0 -2.2 0.0 81 1.1 NW 17 20 9 11 1019.0 1019.1 0.0
27/04:30am 3.4 -1.4 -0.1 78 1.3 NW 15 20 8 11 1019.1 1019.2 0.0
27/04:00am 3.7 -1.1 0.0 77 1.4 NNW 15 19 8 10 1019.1 1019.2 0.0
27/03:30am 3.5 -1.3 0.3 79 1.2 NW 15 20 8 11 1019.2 1019.3 0.0
27/03:00am 4.2 -1.0 0.2 75 1.5 NNW 17 26 9 14 1019.3 1019.4 0.0
27/02:30am 3.8 -2.0 0.1 77 1.4 NNW 20 28 11 15 1019.4 1019.5 0.0
27/02:00am 4.0 -0.4 0.3 77 1.4 WNW 13 19 7 10 1019.3 1019.4 0.0
27/01:30am 4.5 -0.3 0.0 72 1.7 NNW 15 22 8 12 1019.1 1019.2 0.0
27/01:00am 4.4 -0.4 -0.1 72 1.7 NW 15 20 8 11 1019.5 1019.6 0.0
27/12:30am 4.3 -0.5 0.1 74 1.6 NNW 15 20 8 11 1019.3 1019.4 0.0
27/12:00am 4.2 -0.7 -0.7 70 1.8 NNW 15 20 8 11 1019.4 1019.5 0.0
 
Date/Time
EST
Temp
°C
App
Temp
°C
Dew
Point
°C
Rel
Hum
%
Delta-T
°C
Wind Press
QNH
hPa
Press
MSL
hPa
Rain since
9am
mm
Dir  Spd
km/h
Gust
km/h
Spd
kts
Gust
kts
26/11:30pm 3.0 -0.6 0.6 84 0.9 N 9 13 5 7 1019.2 1019.3 0.0
26/11:00pm 2.1 0.1 -0.1 85 0.8 CALM 0 0 0 0 1019.1 1019.2 0.0
26/10:30pm 4.4 1.1 0.2 74 1.6 NNW 7 9 4 5 1018.9 1019.0 0.0
26/10:00pm 4.4 0.4 0.2 74 1.6 NW 11 13 6 7 1018.7 1018.8 0.0
26/09:30pm 4.5 1.3 -0.3 71 1.8 W 6 11 3 6 1018.6 1018.7 0.0
26/09:00pm 5.2 2.4 -0.1 68 2.0 NE 4 11 2 6 1018.1 1018.2 0.0
26/08:30pm 5.4 1.1 0.8 72 1.8 NW 13 17 7 9 1018.0 1018.1 0.0
26/08:00pm 4.6 0.2 0.1 72 1.7 WNW 13 15 7 8 1017.7 1017.8 0.0
26/07:30pm 4.6 0.2 0.4 74 1.6 WNW 13 15 7 8 1017.6 1017.7 0.0
26/07:00pm 5.7 2.6 0.3 68 2.1 WNW 6 11 3 6 1017.3 1017.4 0.0
26/06:30pm 5.9 2.9 0.5 68 2.1 SW 6 7 3 4 1017.0 1017.1 0.0
26/06:00pm 7.4 3.4 0.6 62 2.7 SSW 11 19 6 10 1016.4 1016.5 0.0
26/05:30pm 8.0 2.4 -0.2 56 3.2 SW 19 24 10 13 1016.1 1016.2 0.0
26/05:00pm 7.8 2.0 0.2 58 3.0 SW 20 26 11 14 1015.5 1015.6 0.0
26/04:30pm 8.5 1.5 -0.8 52 3.6 SW 26 39 14 21 1015.0 1015.1 0.0
26/04:00pm 9.3 3.4 -1.0 48 4.0 SW 20 35 11 19 1014.7 1014.8 0.0
26/03:30pm 9.1 4.7 0.1 53 3.6 SW 13 20 7 11 1014.3 1014.4 0.0
26/03:00pm 9.4 4.1 -0.8 49 4.0 SW 17 20 9 11 1014.0 1014.1 0.0
26/02:30pm 9.8 2.4 -0.9 47 4.2 SSW 28 43 15 23 1013.4 1013.5 0.0
26/02:00pm 8.9 1.5 -0.5 51 3.7 SW 28 41 15 22 1013.0 1013.0 0.0
26/01:30pm 9.2 3.5 0.5 54 3.5 SW 20 26 11 14 1012.6 1012.6 0.0
26/01:00pm 9.2 3.8 -1.1 48 4.0 SW 17 26 9 14 1012.3 1012.3 0.0
26/12:30pm 8.9 2.0 0.1 54 3.5 SW 26 39 14 21 1012.1 1012.1 0.0
26/12:00pm 9.5 4.0 1.9 59 3.2 SSW 20 32 11 17 1011.8 1011.8 0.0
26/11:30am 8.9 3.3 1.4 59 3.1 SW 20 33 11 18 1011.7 1011.7 0.0
26/11:00am 9.0 2.1 2.4 63 2.8 SSW 28 37 15 20 1011.3 1011.3 0.0
26/10:30am 9.2 0.5 1.8 60 3.1 SSW 37 46 20 25 1010.9 1010.9 0.0
26/10:00am 8.8 1.8 2.1 63 2.8 SW 28 39 15 21 1010.4 1010.4 0.0
26/09:30am 8.4 3.6 2.5 66 2.5 SW 17 26 9 14 1009.8 1009.8 0.0
26/09:00am 7.8 1.0 3.1 72 2.0 SW 28 37 15 20 1009.3 1009.3 5.0
26/08:30am 7.6 2.0 3.6 76 1.7 SW 22 33 12 18 1008.5 1008.5 5.0
26/08:00am 7.8 2.7 3.9 76 1.7 SW 20 33 11 18 1008.0 1008.0 5.0
26/07:30am 7.8 3.8 5.1 83 1.2 SW 15 22 8 12 1006.9 1006.9 5.0
26/07:00am 7.5 2.8 6.0 90 0.7 SSW 20 32 11 17 1006.0 1006.0 5.0
26/06:43am 7.5 3.0 6.2 91 0.6 SSW 19 26 10 14 1005.5 1005.5 4.8
26/06:30am 7.7 3.5 5.9 88 0.8 SSW 17 24 9 13 1005.1 1005.1 4.8
26/06:24am 7.6 3.1 6.1 90 0.7 SSW 19 28 10 15 1005.0 1005.0 4.8
26/06:00am 7.6 2.2 6.3 91 0.6 SSW 24 37 13 20 1004.2 1004.2 4.6
26/05:51am 7.3 2.8 6.0 91 0.6 SSW 19 26 10 14 1003.8 1003.8 4.2
26/05:30am 7.2 2.3 4.9 85 1.0 SW 20 26 11 14 1003.2 1003.2 2.6
26/05:00am 7.1 1.5 5.5 89 0.7 SSW 24 33 13 18 1002.7 1002.7 1.6
26/04:43am 7.8 4.1 6.5 91 0.6 SSW 15 26 8 14 1002.3 1002.3 0.6
26/04:30am 7.9 4.9 6.2 89 0.8 SSW 11 13 6 7 1002.1 1002.1 0.2
26/04:00am 8.7 6.3 4.2 73 2.0 SW 6 9 3 5 1001.5 1001.5 0.0
26/03:30am 8.5 5.9 4.2 74 1.9 NW 7 11 4 6 1001.0 1001.0 0.0
26/03:00am 8.3 5.3 4.0 74 1.9 NNE 9 13 5 7 1000.8 1000.8 0.0
26/02:30am 8.3 6.5 3.7 73 2.0 NNE 2 6 1 3 1000.6 1000.6 0.0
26/02:00am 8.7 5.6 3.7 71 2.2 NNW 9 13 5 7 1000.8 1000.8 0.0
26/01:30am 9.7 6.1 2.7 61 3.0 NNW 11 17 6 9 1000.8 1000.8 0.0
26/01:00am 8.5 6.0 4.7 77 1.7 NNW 7 9 4 5 1001.0 1001.0 0.0
26/12:30am 8.9 5.9 4.1 72 2.1 NNW 9 11 5 6 1001.3 1001.3 0.0
26/12:00am 9.7 5.7 2.7 61 3.0 WNW 13 17 7 9 1001.4 1001.4 0.0
 
Date/Time
EST
Temp
°C
App
Temp
°C
Dew
Point
°C
Rel
Hum
%
Delta-T
°C
Wind Press
QNH
hPa
Press
MSL
hPa
Rain since
9am
mm
Dir  Spd
km/h
Gust
km/h
Spd
kts
Gust
kts
25/11:30pm 9.9 5.2 3.0 62 3.0 WNW 17 20 9 11 1001.5 1001.5 0.0
25/11:00pm 10.3 5.5 2.4 58 3.4 NNW 17 24 9 13 1001.8 1001.8 0.0
25/10:30pm 10.7 5.5 2.3 56 3.6 NW 19 26 10 14 1002.1 1002.1 0.0
25/10:00pm 9.6 6.5 3.4 65 2.7 NNW 9 13 5 7 1002.2 1002.2 0.0
25/09:30pm 10.2 6.6 3.1 61 3.1 NW 11 17 6 9 1002.2 1002.2 0.0
25/09:00pm 10.0 6.1 3.4 63 2.9 N 13 15 7 8 1002.6 1002.6 0.0
25/08:30pm 10.0 6.6 4.2 67 2.6 NW 11 13 6 7 1002.4 1002.4 0.0
25/08:00pm 10.9 6.7 4.0 62 3.1 NW 15 20 8 11 1002.5 1002.5 0.0
25/07:30pm 11.0 6.0 3.8 61 3.2 WNW 19 26 10 14 1002.6 1002.6 0.0
25/07:00pm 11.5 8.0 3.4 57 3.6 NW 11 17 6 9 1002.8 1002.8 0.0
25/06:30pm 10.9 7.0 3.4 60 3.3 NNW 13 17 7 9 1002.7 1002.7 0.0
25/06:00pm 10.8 6.2 3.8 62 3.1 NNW 17 26 9 14 1002.7 1002.7 0.0
25/05:30pm 11.8 7.5 3.2 55 3.8 NNW 15 20 8 11 1002.8 1002.8 0.0
25/05:00pm 12.1 7.5 3.9 57 3.7 NNW 17 24 9 13 1003.1 1003.1 0.0
25/04:30pm 12.4 8.3 4.6 59 3.6 NNW 15 24 8 13 1003.0 1003.0 0.0
25/04:00pm 13.0 8.6 4.8 57 3.8 NNW 17 26 9 14 1002.8 1002.8 0.0
25/03:30pm 13.8 8.1 4.8 54 4.2 NNW 24 33 13 18 1002.9 1002.9 0.0
25/03:00pm 14.8 9.0 4.5 50 4.8 NW 24 33 13 18 1002.9 1002.9 0.0
25/02:30pm 14.6 10.4 4.0 49 4.9 NW 15 22 8 12 1003.0 1003.0 0.0
25/02:00pm 14.7 10.2 4.1 49 4.9 W 17 22 9 12 1003.0 1003.0 0.0
25/01:30pm 14.6 9.8 4.8 52 4.6 WNW 19 28 10 15 1003.2 1003.2 0.0
25/01:00pm 14.5 10.8 4.4 50 4.7 WNW 13 22 7 12 1003.5 1003.5 0.0
25/12:30pm 13.0 9.7 6.3 64 3.2 NW 13 19 7 10 1004.1 1004.1 0.0
25/12:00pm 12.7 9.3 5.9 63 3.2 NNW 13 19 7 10 1004.9 1004.9 0.0
25/11:30am 12.0 9.0 6.1 67 2.8 N 11 15 6 8 1005.5 1005.5 0.0
25/11:00am 10.4 7.7 5.6 72 2.2 NW 9 13 5 7 1006.3 1006.3 0.0
25/10:30am 9.6 6.0 4.9 72 2.1 NW 13 15 7 8 1006.7 1006.7 0.0
25/10:00am 8.9 5.7 4.9 76 1.8 N 11 15 6 8 1007.0 1007.0 0.0
25/09:30am 8.5 5.2 4.7 77 1.7 NNE 11 15 6 8 1007.2 1007.2 0.0
25/09:00am 7.0 4.2 5.0 87 0.9 N 9 13 5 7 1007.5 1007.5 0.6
25/08:30am 7.4 2.7 3.4 76 1.7 NW 17 20 9 11 1007.6 1007.6 0.2
25/08:00am 7.4 3.8 2.9 73 1.9 NW 11 13 6 7 1007.5 1007.5 0.0
25/07:30am 6.7 2.6 2.3 73 1.8 NNW 13 19 7 10 1007.6 1007.6 0.0
25/07:00am 6.5 2.8 2.1 73 1.8 N 11 13 6 7 1008.0 1008.0 0.0
25/06:30am 7.4 3.6 1.5 66 2.4 NNW 11 17 6 9 1008.3 1008.3 0.0
25/06:00am 7.2 3.8 2.1 70 2.1 NW 9 13 5 7 1008.7 1008.7 0.0
25/05:30am 5.6 2.3 2.7 81 1.2 NNW 9 11 5 6 1008.8 1008.8 0.0
25/05:00am 6.8 3.5 2.2 72 1.9 NW 9 11 5 6 1009.2 1009.2 0.0
25/04:30am 6.5 2.8 2.6 76 1.6 NNW 11 15 6 8 1009.6 1009.6 0.0
25/04:00am 6.9 3.2 2.3 72 1.9 NNW 11 15 6 8 1009.6 1009.6 0.0
25/03:30am 7.4 3.7 2.3 70 2.1 NNW 11 17 6 9 1010.3 1010.3 0.0
25/03:00am 6.5 3.6 2.4 75 1.7 NNE 7 9 4 5 1010.6 1010.6 0.0
25/02:30am 6.1 2.4 2.2 76 1.6 N 11 15 6 8 1010.8 1010.8 0.0
25/02:00am 6.2 2.4 2.0 74 1.7 N 11 13 6 7 1010.9 1010.9 0.0
25/01:30am 6.3 2.1 1.6 72 1.9 NNW 13 15 7 8 1010.9 1010.9 0.0
25/01:00am 6.4 2.6 1.7 72 1.9 NNW 11 17 6 9 1011.0 1011.0 0.0
25/12:30am 6.9 2.3 1.7 69 2.1 NNW 15 20 8 11 1011.4 1011.4 0.0
25/12:00am 7.1 1.7 1.4 67 2.3 NW 19 22 10 12 1011.3 1011.3 0.0
 
Date/Time
EST
Temp
°C
App
Temp
°C
Dew
Point
°C
Rel
Hum
%
Delta-T
°C
Wind Press
QNH
hPa
Press
MSL
hPa
Rain since
9am
mm
Dir  Spd
km/h
Gust
km/h
Spd
kts
Gust
kts
24/11:30pm 7.1 1.7 1.1 65 2.4 NNW 19 24 10 13 1011.3 1011.3 0.0
24/11:00pm 7.0 1.4 1.0 65 2.4 NW 20 26 11 14 1011.4 1011.4 0.0
24/10:30pm 6.6 1.0 1.4 69 2.1 NW 20 28 11 15 1011.4 1011.4 0.0
24/10:00pm 6.9 1.3 1.2 67 2.3 NW 20 24 11 13 1011.5 1011.5 0.0
24/09:30pm 7.4 1.4 0.9 63 2.6 NW 22 30 12 16 1011.5 1011.5 0.0
24/09:00pm 7.2 1.6 1.2 65 2.4 NW 20 30 11 16 1011.7 1011.7 0.0
24/08:30pm 6.8 2.5 0.7 65 2.4 NW 13 30 7 16 1011.6 1011.6 0.0
24/08:00pm 6.9 2.9 0.6 64 2.5 NW 11 15 6 8 1011.6 1011.6 0.0
24/07:30pm 6.6 2.6 0.8 66 2.3 NNW 11 15 6 8 1011.6 1011.6 0.0
24/07:00pm 7.1 2.3 0.2 61 2.7 WNW 15 19 8 10 1011.6 1011.6 0.0
24/06:30pm 7.4 2.7 0.6 62 2.7 NW 15 20 8 11 1011.3 1011.3 0.0
24/06:00pm 7.7 2.9 0.4 60 2.9 NNW 15 19 8 10 1011.4 1011.4 0.0
24/05:30pm 9.0 1.6 -0.4 52 3.7 WNW 28 35 15 19 1011.2 1011.2 0.0
24/05:00pm 9.4 3.5 -0.8 49 4.0 WNW 20 28 11 15 1010.7 1010.7 0.0
24/04:30pm 10.0 1.2 -0.9 46 4.3 WNW 35 44 19 24 1010.7 1010.7 0.0
24/04:00pm 10.4 0.8 -1.3 44 4.6 WNW 39 52 21 28 1010.4 1010.4 0.0
24/03:39pm 10.8 0.8 -1.8 41 4.9 WNW 41 59 22 32 1010.1 1010.1 0.0
24/03:30pm 10.7 0.3 -1.6 42 4.8 WNW 43 54 23 29 1010.1 1010.1 0.0
24/03:00pm 10.8 1.3 -0.7 45 4.6 NW 39 54 21 29 1010.4 1010.4 0.0
24/02:30pm 11.3 1.9 -0.3 44 4.7 NW 39 52 21 28 1010.3 1010.3 0.0
24/02:00pm 10.4 0.6 -0.3 47 4.3 NW 41 52 22 28 1010.4 1010.4 0.0
24/01:43pm 11.2 3.0 -0.8 43 4.8 NW 32 50 17 27 1010.5 1010.5 0.0
24/01:30pm 11.3 3.1 -1.3 41 5.0 NW 32 46 17 25 1010.6 1010.6 0.0
24/01:00pm 11.5 3.1 -1.0 42 5.0 NW 33 57 18 31 1010.5 1010.5 0.0
24/12:45pm 11.5 4.0 -1.7 40 5.2 WNW 28 46 15 25 1010.4 1010.4 0.0
24/12:30pm 11.9 5.4 -2.2 37 5.5 NW 22 35 12 19 1010.6 1010.6 0.0
24/12:11pm 11.5 4.0 -1.7 40 5.2 WNW 28 54 15 29 1010.8 1010.8 0.0
24/12:00pm 11.6 4.9 -0.8 42 5.0 NW 24 46 13 25 1011.0 1011.0 0.0
24/11:30am 10.6 2.8 -1.0 44 4.6 NW 30 43 16 23 1011.4 1011.4 0.0
24/11:05am 10.5 2.4 -0.2 47 4.3 NW 32 50 17 27 1011.3 1011.3 0.0
24/11:00am 10.4 2.3 -0.3 47 4.3 NW 32 41 17 22 1011.2 1011.2 0.0
24/10:30am 10.1 1.7 -0.8 46 4.3 NW 33 50 18 27 1011.4 1011.4 0.0
24/10:24am 10.0 1.7 -0.6 47 4.2 WNW 33 52 18 28 1011.4 1011.4 0.0
24/10:00am 10.1 1.2 -1.8 43 4.6 WNW 35 50 19 27 1011.4 1011.4 0.0
24/09:34am 9.0 0.8 -1.0 49 3.9 NW 32 52 17 28 1011.3 1011.3 0.0
24/09:30am 8.9 0.7 -0.8 50 3.8 NW 32 48 17 26 1011.2 1011.2 0.0
24/09:22am 8.9 1.4 -1.2 49 3.9 NW 28 48 15 26 1011.2 1011.2 0.0
24/09:00am 8.6 2.6 -1.3 50 3.8 NNW 20 32 11 17 1011.0 1011.0 0.4
24/08:30am 7.6 1.9 -0.7 55 3.2 NW 19 28 10 15 1010.9 1010.9 0.4
24/08:00am 7.1 0.5 -0.4 59 2.9 NW 24 37 13 20 1010.9 1010.9 0.4
24/07:30am 6.0 1.1 -0.3 64 2.4 NW 15 24 8 13 1010.6 1010.6 0.4
24/07:00am 6.0 0.3 -0.6 62 2.5 NW 19 26 10 14 1010.1 1010.1 0.4

Other Formats:

Comma delimited format used in spreadsheet applications
http://www.bom.gov.au/fwo/IDT60801/IDT60801.94975.axf

JavaScript Object Notation format (JSON) in row-major order
http://www.bom.gov.au/fwo/IDT60801/IDT60801.94975.json